Time,TemperatureF,DewpointF,PressureIn,WindDirection,WindDirectionDegrees,WindSpeedMPH,WindSpeedGustMPH,Humidity,HourlyPrecipIn,Conditions,Clouds,dailyrainin,SoftwareType,DateUTC
2013-11-03 00:00:00,29.6,26.2,30.07,West,267,0.0,0.0,87,0.00,,---,0.00,VWS V14.01,2013-11-03 05:00:00,
2013-11-03 00:01:00,29.2,26.1,30.07,West,267,0.0,0.0,88,0.00,,---,0.00,VWS V14.01,2013-11-03 05:01:00,
2013-11-03 00:06:00,29.1,26.0,30.07,West,267,0.0,0.0,88,0.00,,---,0.00,VWS V14.01,2013-11-03 05:06:00,
2013-11-03 00:11:00,29.1,26.0,30.07,West,267,0.0,0.0,88,0.00,,---,0.00,VWS V14.01,2013-11-03 05:11:00,
2013-11-03 00:16:00,29.2,26.1,30.07,West,267,0.0,0.0,88,0.00,,---,0.00,VWS V14.01,2013-11-03 05:16:00,
2013-11-03 00:21:00,29.2,26.1,30.07,West,267,0.0,0.0,88,0.00,,---,0.00,VWS V14.01,2013-11-03 05:21:00,
2013-11-03 00:26:00,29.3,26.2,30.06,West,267,0.0,0.0,88,0.00,,---,0.00,VWS V14.01,2013-11-03 05:26:00,
2013-11-03 00:30:00,29.1,26.0,30.07,West,267,0.0,0.0,88,0.00,,---,0.00,VWS V14.01,2013-11-03 05:30:00,
2013-11-03 00:31:00,29.3,26.2,30.06,West,267,0.0,0.0,88,0.00,,---,0.00,VWS V14.01,2013-11-03 05:31:00,
2013-11-03 00:36:00,29.4,26.3,30.06,West,267,0.0,0.0,88,0.00,,---,0.00,VWS V14.01,2013-11-03 05:36:00,
2013-11-03 00:41:00,29.4,26.3,30.06,West,267,0.0,0.0,88,0.00,,---,0.00,VWS V14.01,2013-11-03 05:41:00,
2013-11-03 00:46:00,29.4,26.3,30.06,West,267,0.0,0.0,88,0.00,,---,0.00,VWS V14.01,2013-11-03 05:46:00,
2013-11-03 00:51:00,29.5,26.4,30.07,West,267,0.0,0.0,88,0.00,,---,0.00,VWS V14.01,2013-11-03 05:51:00,
2013-11-03 00:56:00,29.6,26.8,30.07,West,267,0.0,0.0,89,0.00,,---,0.00,VWS V14.01,2013-11-03 05:56:00,
2013-11-03 01:00:00,30.7,27.9,30.07,West,267,0.0,0.0,89,0.00,,---,0.00,VWS V14.01,2013-11-03 06:00:00,
2013-11-03 01:01:00,29.7,26.6,30.07,West,267,0.0,0.0,88,0.00,,---,0.00,VWS V14.01,2013-11-03 06:01:00,
2013-11-03 01:02:00,30.8,28.0,30.07,West,267,0.0,0.0,89,0.00,,---,0.00,VWS V14.01,2013-11-03 06:02:00,
2013-11-03 01:03:00,30.8,28.0,30.08,West,267,0.0,0.0,89,0.00,,---,0.00,VWS V14.01,2013-11-03 06:03:00,
2013-11-03 01:04:00,30.8,28.0,30.08,West,267,0.0,0.0,89,0.00,,---,0.00,VWS V14.01,2013-11-03 06:04:00,
2013-11-03 01:05:00,30.8,28.0,30.08,West,267,0.0,0.0,89,0.00,,---,0.00,VWS V14.01,2013-11-03 06:05:00,
2013-11-03 01:06:00,29.7,26.6,30.07,West,267,0.0,0.0,88,0.00,,---,0.00,VWS V14.01,2013-11-03 06:06:00,
2013-11-03 01:11:00,29.7,26.6,30.07,West,267,0.0,0.0,88,0.00,,---,0.00,VWS V14.01,2013-11-03 06:11:00,
2013-11-03 01:16:00,29.6,26.5,30.07,West,267,0.0,0.0,88,0.00,,---,0.00,VWS V14.01,2013-11-03 06:16:00,
2013-11-03 01:21:00,29.6,26.5,30.07,West,267,0.0,0.0,88,0.00,,---,0.00,VWS V14.01,2013-11-03 06:21:00,
2013-11-03 01:26:00,29.6,26.8,30.07,West,267,0.0,0.0,89,0.00,,---,0.00,VWS V14.01,2013-11-03 06:26:00,
2013-11-03 01:30:00,29.3,26.2,30.06,West,267,0.0,0.0,88,0.00,,---,0.00,VWS V14.01,2013-11-03 06:30:00,
2013-11-03 01:31:00,29.6,26.8,30.06,West,267,0.0,0.0,89,0.00,,---,0.00,VWS V14.01,2013-11-03 06:31:00,
2013-11-03 01:36:00,29.7,26.9,30.07,West,267,0.0,0.0,89,0.00,,---,0.00,VWS V14.01,2013-11-03 06:36:00,
2013-11-03 01:41:00,29.8,27.0,30.07,West,267,0.0,0.0,89,0.00,,---,0.00,VWS V14.01,2013-11-03 06:41:00,
2013-11-03 01:46:00,30.1,27.3,30.07,West,267,0.0,0.0,89,0.00,,---,0.00,VWS V14.01,2013-11-03 06:46:00,
2013-11-03 01:51:00,30.3,27.5,30.07,West,267,0.0,0.0,89,0.00,,---,0.00,VWS V14.01,2013-11-03 06:51:00,
2013-11-03 01:56:00,30.5,27.6,30.07,West,267,0.0,0.0,89,0.00,,---,0.00,VWS V14.01,2013-11-03 06:56:00,
2013-11-03 01:00:00,29.7,26.6,30.07,West,267,0.0,0.0,88,0.00,,---,0.00,VWS V14.01,2013-11-03 07:00:00,
2013-11-03 01:01:00,30.7,27.9,30.07,West,267,0.0,0.0,89,0.00,,---,0.00,VWS V14.01,2013-11-03 07:01:00,
2013-11-03 01:06:00,30.8,28.0,30.08,West,267,0.0,0.0,89,0.00,,---,0.00,VWS V14.01,2013-11-03 07:06:00,
2013-11-03 01:11:00,31.0,28.1,30.08,West,267,0.0,0.0,89,0.00,,---,0.00,VWS V14.01,2013-11-03 07:11:00,
2013-11-03 01:16:00,31.2,28.3,30.07,West,267,0.0,0.0,89,0.00,,---,0.00,VWS V14.01,2013-11-03 07:16:00,
2013-11-03 01:21:00,31.3,28.4,30.07,West,267,0.0,0.0,89,0.00,,---,0.00,VWS V14.01,2013-11-03 07:21:00,
2013-11-03 01:26:00,31.4,28.5,30.07,West,267,0.0,0.0,89,0.00,,---,0.00,VWS V14.01,2013-11-03 07:26:00,
2013-11-03 01:30:00,29.6,26.8,30.06,West,267,0.0,0.0,89,0.00,,---,0.00,VWS V14.01,2013-11-03 07:30:00,
2013-11-03 01:31:00,31.5,28.6,30.07,West,267,0.0,0.0,89,0.00,,---,0.00,VWS V14.01,2013-11-03 07:31:00,
2013-11-03 01:36:00,31.5,28.6,30.07,West,267,0.0,0.0,89,0.00,,---,0.00,VWS V14.01,2013-11-03 07:36:00,
2013-11-03 01:41:00,31.6,28.7,30.07,West,267,0.0,0.0,89,0.00,,---,0.00,VWS V14.01,2013-11-03 07:41:00,
2013-11-03 01:46:00,31.7,28.8,30.07,West,267,0.0,0.0,89,0.00,,---,0.00,VWS V14.01,2013-11-03 07:46:00,
2013-11-03 01:51:00,31.8,28.9,30.07,West,267,0.0,0.0,89,0.00,,---,0.00,VWS V14.01,2013-11-03 07:51:00,
2013-11-03 01:56:00,31.9,29.0,30.07,West,267,0.0,0.0,89,0.00,,---,0.00,VWS V14.01,2013-11-03 07:56:00,
2013-11-03 02:00:00,31.9,29.0,30.07,West,267,0.0,0.0,89,0.00,,---,0.00,VWS V14.01,2013-11-03 08:00:00,
2013-11-03 02:01:00,32.0,29.1,30.07,West,267,0.0,0.0,89,0.00,,---,0.00,VWS V14.01,2013-11-03 08:01:00,
2013-11-03 02:06:00,32.0,29.1,30.07,West,267,0.0,0.0,89,0.00,,---,0.00,VWS V14.01,2013-11-03 08:06:00,
2013-11-03 02:11:00,32.1,29.2,30.07,West,267,0.0,0.0,89,0.00,,---,0.00,VWS V14.01,2013-11-03 08:11:00,
2013-11-03 02:16:00,32.2,29.3,30.06,West,267,0.0,0.0,89,0.00,,---,0.00,VWS V14.01,2013-11-03 08:16:00,
2013-11-03 02:21:00,32.3,29.4,30.06,West,267,0.0,0.0,89,0.00,,---,0.00,VWS V14.01,2013-11-03 08:21:00,
2013-11-03 02:26:00,32.5,29.9,30.07,West,267,0.0,0.0,90,0.00,,---,0.00,VWS V14.01,2013-11-03 08:26:00,
2013-11-03 02:30:00,32.6,30.0,30.07,West,267,0.0,0.0,90,0.00,,---,0.00,VWS V14.01,2013-11-03 08:30:00,
2013-11-03 02:31:00,32.6,30.0,30.07,West,267,0.0,0.0,90,0.00,,---,0.00,VWS V14.01,2013-11-03 08:31:00,
2013-11-03 02:36:00,32.7,30.1,30.07,West,267,0.0,0.0,90,0.00,,---,0.00,VWS V14.01,2013-11-03 08:36:00,
2013-11-03 02:41:00,32.7,29.8,30.06,West,267,0.0,0.0,89,0.00,,---,0.00,VWS V14.01,2013-11-03 08:41:00,
2013-11-03 02:46:00,32.8,29.9,30.06,West,267,0.0,0.0,89,0.00,,---,0.00,VWS V14.01,2013-11-03 08:46:00,
2013-11-03 02:51:00,32.9,30.0,30.06,West,267,0.0,0.0,89,0.00,,---,0.00,VWS V14.01,2013-11-03 08:51:00,
2013-11-03 02:56:00,33.0,30.1,30.06,West,267,0.0,0.0,89,0.00,,---,0.00,VWS V14.01,2013-11-03 08:56:00,
2013-11-03 03:00:00,33.3,30.7,30.06,West,267,0.0,0.0,90,0.00,,---,0.00,VWS V14.01,2013-11-03 09:00:00,
2013-11-03 03:01:00,33.3,30.7,30.06,West,267,0.0,0.0,90,0.00,,---,0.00,VWS V14.01,2013-11-03 09:01:00,
2013-11-03 03:06:00,33.5,30.9,30.05,West,267,0.0,0.0,90,0.00,,---,0.00,VWS V14.01,2013-11-03 09:06:00,
2013-11-03 03:11:00,33.9,32.9,30.05,West,267,0.0,0.0,96,0.00,,---,0.00,VWS V14.01,2013-11-03 09:11:00,
2013-11-03 03:16:00,34.2,31.6,30.05,West,267,0.0,0.0,90,0.00,,---,0.00,VWS V14.01,2013-11-03 09:16:00,
2013-11-03 03:21:00,34.4,31.8,30.05,West,267,0.0,0.0,90,0.00,,---,0.00,VWS V14.01,2013-11-03 09:21:00,
2013-11-03 03:26:00,34.4,31.5,30.05,West,267,0.0,1.0,89,0.00,,---,0.00,VWS V14.01,2013-11-03 09:26:00,
2013-11-03 03:30:00,34.6,31.7,30.04,West,267,0.0,1.0,89,0.00,,---,0.00,VWS V14.01,2013-11-03 09:30:00,
2013-11-03 03:31:00,34.6,31.7,30.04,West,267,0.0,1.0,89,0.00,,---,0.00,VWS V14.01,2013-11-03 09:31:00,
2013-11-03 03:36:00,34.7,31.8,30.05,West,267,0.0,0.0,89,0.00,,---,0.00,VWS V14.01,2013-11-03 09:36:00,
2013-11-03 03:41:00,34.7,31.8,30.05,West,267,0.0,0.0,89,0.00,,---,0.00,VWS V14.01,2013-11-03 09:41:00,
2013-11-03 03:46:00,34.8,31.6,30.05,West,267,0.0,0.0,88,0.00,,---,0.00,VWS V14.01,2013-11-03 09:46:00,
2013-11-03 03:51:00,35.0,31.8,30.05,SSE,162,0.0,2.0,88,0.00,,---,0.00,VWS V14.01,2013-11-03 09:51:00,
2013-11-03 03:56:00,35.2,32.0,30.04,SSE,162,0.0,2.0,88,0.00,,---,0.00,VWS V14.01,2013-11-03 09:56:00,
2013-11-03 04:00:00,35.4,31.9,30.04,SSE,162,0.0,2.0,87,0.00,,---,0.00,VWS V14.01,2013-11-03 10:00:00,
2013-11-03 04:01:00,35.5,32.0,30.04,SSE,162,0.0,2.0,87,0.00,,---,0.00,VWS V14.01,2013-11-03 10:01:00,
2013-11-03 04:06:00,35.5,32.0,30.04,SSE,162,0.0,0.0,87,0.00,,---,0.00,VWS V14.01,2013-11-03 10:06:00,
2013-11-03 04:11:00,35.6,31.8,30.04,SSE,161,0.0,0.0,86,0.00,,---,0.00,VWS V14.01,2013-11-03 10:11:00,
2013-11-03 04:16:00,35.6,31.8,30.03,SSE,162,0.0,1.0,86,0.00,,---,0.00,VWS V14.01,2013-11-03 10:16:00,
2013-11-03 04:21:00,35.7,31.9,30.03,SSE,162,0.0,1.0,86,0.00,,---,0.00,VWS V14.01,2013-11-03 10:21:00,
2013-11-03 04:26:00,35.7,31.6,30.03,SSE,162,0.0,1.0,85,0.00,,---,0.00,VWS V14.01,2013-11-03 10:26:00,
2013-11-03 04:30:00,35.7,31.6,30.03,SSE,161,0.0,1.0,85,0.00,,---,0.00,VWS V14.01,2013-11-03 10:30:00,
2013-11-03 04:31:00,35.7,31.6,30.03,SSE,162,0.0,1.0,85,0.00,,---,0.00,VWS V14.01,2013-11-03 10:31:00,
2013-11-03 04:35:00,35.8,31.7,30.03,SSE,160,0.0,3.0,85,0.00,,---,0.00,VWS V14.01,2013-11-03 10:35:00,
2013-11-03 04:40:00,36.0,31.9,30.03,SSE,160,0.0,3.0,85,0.00,,---,0.00,VWS V14.01,2013-11-03 10:40:00,
2013-11-03 04:45:00,36.1,31.7,30.03,SSE,161,0.0,3.0,84,0.00,,---,0.00,VWS V14.01,2013-11-03 10:45:00,
2013-11-03 04:50:00,36.1,31.7,30.03,SSE,160,0.0,3.0,84,0.00,,---,0.00,VWS V14.01,2013-11-03 10:50:00,
2013-11-03 04:55:00,36.2,31.8,30.03,SSE,161,0.0,3.0,84,0.00,,---,0.00,VWS V14.01,2013-11-03 10:55:00,
2013-11-03 05:00:00,36.2,31.8,30.03,SSE,152,0.0,3.0,84,0.00,,---,0.00,VWS V14.01,2013-11-03 11:00:00,
2013-11-03 05:05:00,36.4,32.0,30.03,SSE,152,0.0,0.0,84,0.00,,---,0.00,VWS V14.01,2013-11-03 11:05:00,
2013-11-03 05:10:00,36.5,31.8,30.02,SSE,152,0.0,2.0,83,0.00,,---,0.00,VWS V14.01,2013-11-03 11:10:00,
2013-11-03 05:15:00,36.5,31.8,30.02,East,95,0.0,2.0,83,0.00,,---,0.00,VWS V14.01,2013-11-03 11:15:00,
2013-11-03 05:20:00,36.5,31.8,30.03,East,95,0.0,2.0,83,0.00,,---,0.00,VWS V14.01,2013-11-03 11:20:00,
2013-11-03 05:25:00,36.5,31.8,30.03,East,95,0.0,2.0,83,0.00,,---,0.00,VWS V14.01,2013-11-03 11:25:00,
2013-11-03 05:30:00,36.5,31.8,30.02,East,95,0.0,2.0,83,0.00,,---,0.00,VWS V14.01,2013-11-03 11:30:00,
2013-11-03 05:35:00,36.4,31.7,30.02,SE,126,0.0,1.0,83,0.00,,---,0.00,VWS V14.01,2013-11-03 11:35:00,
2013-11-03 05:40:00,36.4,31.7,30.02,East,83,0.0,3.0,83,0.00,,---,0.00,VWS V14.01,2013-11-03 11:40:00,
2013-11-03 05:45:00,36.3,31.6,30.02,East,84,0.0,3.0,83,0.00,,---,0.00,VWS V14.01,2013-11-03 11:45:00,
2013-11-03 05:50:00,36.2,31.5,30.02,SSE,147,0.0,3.0,83,0.00,,---,0.00,VWS V14.01,2013-11-03 11:50:00,
2013-11-03 05:55:00,36.1,31.5,30.02,SSE,147,0.0,3.0,83,0.00,,---,0.00,VWS V14.01,2013-11-03 11:55:00,
2013-11-03 06:00:00,35.9,31.2,30.02,East,87,0.0,3.0,83,0.00,,---,0.00,VWS V14.01,2013-11-03 12:00:00,
2013-11-03 06:05:00,36.0,31.4,30.02,NE,45,0.0,1.0,83,0.00,,---,0.00,VWS V14.01,2013-11-03 12:05:00,
2013-11-03 06:10:00,35.9,31.2,30.01,NE,45,1.0,1.0,83,0.00,,---,0.00,VWS V14.01,2013-11-03 12:10:00,
2013-11-03 06:15:00,36.0,31.4,30.01,SE,136,0.0,3.0,83,0.00,,---,0.00,VWS V14.01,2013-11-03 12:15:00,
2013-11-03 06:20:00,36.0,31.4,30.01,SE,136,0.0,3.0,83,0.00,,---,0.00,VWS V14.01,2013-11-03 12:20:00,
2013-11-03 06:25:00,36.0,31.4,30.01,SE,144,0.0,3.0,83,0.00,,---,0.00,VWS V14.01,2013-11-03 12:25:00,
2013-11-03 06:30:00,36.0,31.4,30.01,SE,144,0.0,3.0,83,0.00,,---,0.00,VWS V14.01,2013-11-03 12:30:00,
2013-11-03 06:35:00,35.9,31.2,30.01,SE,144,0.0,1.0,83,0.00,,---,0.00,VWS V14.01,2013-11-03 12:35:00,
2013-11-03 06:40:00,35.6,31.0,30.01,SE,144,0.0,1.0,83,0.00,,---,0.00,VWS V14.01,2013-11-03 12:40:00,
2013-11-03 06:45:00,35.4,30.8,30.01,SE,144,0.0,1.0,83,0.00,,---,0.00,VWS V14.01,2013-11-03 12:45:00,
2013-11-03 06:50:00,35.2,30.6,30.01,SE,144,0.0,1.0,83,0.00,,---,0.00,VWS V14.01,2013-11-03 12:50:00,
2013-11-03 06:55:00,35.0,30.4,30.01,SE,144,0.0,1.0,83,0.00,,---,0.00,VWS V14.01,2013-11-03 12:55:00,
2013-11-03 07:00:00,34.8,30.5,30.01,SE,144,0.0,1.0,84,0.00,,---,0.00,VWS V14.01,2013-11-03 13:00:00,
2013-11-03 07:05:00,34.7,30.4,30.01,SE,142,0.0,1.0,84,0.00,,---,0.00,VWS V14.01,2013-11-03 13:05:00,
2013-11-03 07:10:00,34.7,30.4,30.01,SE,142,0.0,2.0,84,0.00,,---,0.00,VWS V14.01,2013-11-03 13:10:00,
2013-11-03 07:15:00,34.8,30.5,30.01,SE,141,0.0,2.0,84,0.00,,---,0.00,VWS V14.01,2013-11-03 13:15:00,
2013-11-03 07:20:00,34.9,30.6,30.01,SE,141,1.0,2.0,84,0.00,,---,0.00,VWS V14.01,2013-11-03 13:20:00,
2013-11-03 07:25:00,35.0,30.7,30.00,SE,140,0.0,3.0,84,0.00,,---,0.00,VWS V14.01,2013-11-03 13:25:00,
2013-11-03 07:30:00,35.1,30.8,30.00,SE,138,1.0,3.0,84,0.00,,---,0.00,VWS V14.01,2013-11-03 13:30:00,
2013-11-03 07:35:00,35.3,31.0,30.00,East,83,0.0,3.0,84,0.00,,---,0.00,VWS V14.01,2013-11-03 13:35:00,
2013-11-03 07:40:00,35.7,31.0,30.00,ESE,118,0.0,3.0,83,0.00,,---,0.00,VWS V14.01,2013-11-03 13:40:00,
2013-11-03 07:45:00,35.9,31.2,30.00,ESE,113,0.0,3.0,83,0.00,,---,0.00,VWS V14.01,2013-11-03 13:45:00,
2013-11-03 07:50:00,36.1,31.1,30.00,ENE,78,1.0,3.0,82,0.00,,---,0.00,VWS V14.01,2013-11-03 13:50:00,
2013-11-03 07:55:00,36.6,31.3,30.00,SSE,152,0.0,11.0,81,0.00,,---,0.00,VWS V14.01,2013-11-03 13:55:00,
2013-11-03 08:00:00,36.8,31.5,30.00,SE,146,0.0,11.0,81,0.00,,---,0.00,VWS V14.01,2013-11-03 14:00:00,
2013-11-03 08:05:00,37.0,31.4,30.00,ESE,111,2.0,9.0,80,0.00,,---,0.00,VWS V14.01,2013-11-03 14:05:00,
2013-11-03 08:10:00,37.4,31.8,30.00,SE,136,0.0,9.0,80,0.00,,---,0.00,VWS V14.01,2013-11-03 14:10:00,
2013-11-03 08:15:00,37.7,31.8,30.00,SSE,156,5.0,9.0,79,0.00,,---,0.00,VWS V14.01,2013-11-03 14:15:00,
2013-11-03 08:20:00,37.9,31.7,30.00,SE,132,0.0,9.0,78,0.00,,---,0.00,VWS V14.01,2013-11-03 14:20:00,
2013-11-03 08:25:00,38.2,32.0,30.00,South,172,0.0,9.0,78,0.00,,---,0.00,VWS V14.01,2013-11-03 14:25:00,
2013-11-03 08:30:00,38.4,32.2,30.00,SE,142,0.0,9.0,78,0.00,,---,0.00,VWS V14.01,2013-11-03 14:30:00,
2013-11-03 08:35:00,38.7,32.1,30.00,SE,144,2.0,6.0,77,0.00,,---,0.00,VWS V14.01,2013-11-03 14:35:00,
2013-11-03 08:40:00,39.1,32.5,30.00,SSE,163,6.0,7.0,77,0.00,,---,0.00,VWS V14.01,2013-11-03 14:40:00,
2013-11-03 08:45:00,39.6,32.7,30.00,ESE,113,1.0,7.0,76,0.00,,---,0.00,VWS V14.01,2013-11-03 14:45:00,
2013-11-03 08:50:00,39.9,32.6,30.00,SSE,154,0.0,10.0,75,0.00,,---,0.00,VWS V14.01,2013-11-03 14:50:00,
2013-11-03 08:55:00,40.0,32.7,30.00,SE,138,4.0,10.0,75,0.00,,---,0.00,VWS V14.01,2013-11-03 14:55:00,
2013-11-03 09:00:00,40.0,32.7,29.99,South,173,1.0,10.0,75,0.00,,---,0.00,VWS V14.01,2013-11-03 15:00:00,
2013-11-03 09:05:00,39.9,32.3,29.99,SE,144,2.0,6.0,74,0.00,,---,0.00,VWS V14.01,2013-11-03 15:05:00,
2013-11-03 09:10:00,39.9,32.3,29.99,South,180,3.0,10.0,74,0.00,,---,0.00,VWS V14.01,2013-11-03 15:10:00,
2013-11-03 09:15:00,40.0,32.7,29.99,SE,136,3.0,10.0,75,0.00,,---,0.00,VWS V14.01,2013-11-03 15:15:00,
2013-11-03 09:20:00,40.3,32.7,29.99,SE,145,5.0,10.0,74,0.00,,---,0.00,VWS V14.01,2013-11-03 15:20:00,
2013-11-03 09:25:00,40.5,32.9,29.98,SE,144,5.0,10.0,74,0.00,,---,0.00,VWS V14.01,2013-11-03 15:25:00,
2013-11-03 09:30:00,40.7,33.1,29.98,SSE,153,2.0,10.0,74,0.00,,---,0.00,VWS V14.01,2013-11-03 15:30:00,
2013-11-03 09:35:00,40.9,32.9,29.98,SE,134,6.0,9.0,73,0.00,,---,0.00,VWS V14.01,2013-11-03 15:35:00,
2013-11-03 09:40:00,41.1,33.5,29.98,SE,142,0.0,11.0,74,0.00,,---,0.00,VWS V14.01,2013-11-03 15:40:00,
2013-11-03 09:45:00,41.5,33.5,29.98,SE,146,1.0,11.0,73,0.00,,---,0.00,VWS V14.01,2013-11-03 15:45:00,
2013-11-03 09:50:00,41.9,33.9,29.98,SSE,153,1.0,11.0,73,0.00,,---,0.00,VWS V14.01,2013-11-03 15:50:00,
2013-11-03 09:55:00,42.3,33.6,29.98,SE,132,4.0,11.0,71,0.00,,---,0.00,VWS V14.01,2013-11-03 15:55:00,
2013-11-03 10:00:00,42.8,34.1,29.97,SSE,168,2.0,11.0,71,0.00,,---,0.00,VWS V14.01,2013-11-03 16:00:00,
2013-11-03 10:05:00,43.3,33.8,29.97,SE,142,4.0,13.0,69,0.00,,---,0.00,VWS V14.01,2013-11-03 16:05:00,
2013-11-03 10:10:00,43.6,34.1,29.97,SW,223,3.0,13.0,69,0.00,,---,0.00,VWS V14.01,2013-11-03 16:10:00,
2013-11-03 10:15:00,43.8,34.3,29.97,SSE,167,8.0,13.0,69,0.00,,---,0.00,VWS V14.01,2013-11-03 16:15:00,
2013-11-03 10:20:00,43.9,33.7,29.97,South,175,4.0,13.0,67,0.00,,---,0.00,VWS V14.01,2013-11-03 16:20:00,
2013-11-03 10:25:00,44.0,33.8,29.97,SSE,155,6.0,13.0,67,0.00,,---,0.00,VWS V14.01,2013-11-03 16:25:00,
2013-11-03 10:30:00,44.1,33.9,29.97,South,188,2.0,13.0,67,0.00,,---,0.00,VWS V14.01,2013-11-03 16:30:00,
2013-11-03 10:35:00,44.5,34.6,29.97,SSW,196,4.0,8.0,68,0.00,,---,0.00,VWS V14.01,2013-11-03 16:35:00,
2013-11-03 10:40:00,45.0,34.3,29.96,SSE,161,3.0,10.0,66,0.00,,---,0.00,VWS V14.01,2013-11-03 16:40:00,
2013-11-03 10:45:00,45.0,34.3,29.96,SSE,156,9.0,13.0,66,0.00,,---,0.00,VWS V14.01,2013-11-03 16:45:00,
2013-11-03 10:50:00,45.1,34.4,29.96,SSE,157,3.0,13.0,66,0.00,,---,0.00,VWS V14.01,2013-11-03 16:50:00,
2013-11-03 10:55:00,45.7,34.6,29.95,SSE,150,7.0,13.0,65,0.00,,---,0.00,VWS V14.01,2013-11-03 16:55:00,
2013-11-03 11:00:00,46.2,34.7,29.96,SE,124,0.0,14.0,64,0.00,,---,0.00,VWS V14.01,2013-11-03 17:00:00,
2013-11-03 11:05:00,46.9,35.4,29.95,SE,124,4.0,7.0,64,0.00,,---,0.00,VWS V14.01,2013-11-03 17:05:00,
2013-11-03 11:10:00,47.5,35.1,29.94,SE,128,2.0,15.0,62,0.00,,---,0.00,VWS V14.01,2013-11-03 17:10:00,
2013-11-03 11:15:00,48.1,35.7,29.94,SSE,148,9.0,15.0,62,0.00,,---,0.00,VWS V14.01,2013-11-03 17:15:00,
2013-11-03 11:20:00,48.5,35.7,29.94,SSE,152,6.0,15.0,61,0.00,,---,0.00,VWS V14.01,2013-11-03 17:20:00,
2013-11-03 11:25:00,48.4,35.2,29.93,WSW,238,4.0,15.0,60,0.00,,---,0.00,VWS V14.01,2013-11-03 17:25:00,
2013-11-03 11:30:00,48.3,35.5,29.93,SSE,157,6.0,15.0,61,0.00,,---,0.00,VWS V14.01,2013-11-03 17:30:00,
2013-11-03 11:35:00,48.3,35.5,29.92,SE,136,0.0,7.0,61,0.00,,---,0.00,VWS V14.01,2013-11-03 17:35:00,
2013-11-03 11:40:00,48.3,35.5,29.92,East,82,1.0,13.0,61,0.00,,---,0.00,VWS V14.01,2013-11-03 17:40:00,
2013-11-03 11:45:00,48.4,35.6,29.91,SE,136,2.0,15.0,61,0.00,,---,0.00,VWS V14.01,2013-11-03 17:45:00,
2013-11-03 11:50:00,48.7,35.5,29.91,SW,221,4.0,15.0,60,0.00,,---,0.00,VWS V14.01,2013-11-03 17:50:00,
2013-11-03 11:55:00,49.0,35.7,29.90,SSE,148,1.0,15.0,60,0.00,,---,0.00,VWS V14.01,2013-11-03 17:55:00,
2013-11-03 12:00:00,49.4,35.7,29.90,SSE,161,4.0,15.0,59,0.00,,---,0.00,VWS V14.01,2013-11-03 18:00:00,
2013-11-03 12:05:00,49.6,35.5,29.90,SSW,196,5.0,12.0,58,0.00,,---,0.00,VWS V14.01,2013-11-03 18:05:00,
2013-11-03 12:10:00,49.4,35.7,29.89,SE,145,1.0,13.0,59,0.00,,---,0.00,VWS V14.01,2013-11-03 18:10:00,
2013-11-03 12:16:00,49.6,35.5,29.89,South,186,6.0,14.0,58,0.00,,---,0.00,VWS V14.01,2013-11-03 18:16:00,
2013-11-03 12:21:00,49.9,35.7,29.88,SSW,211,6.0,14.0,58,0.00,,---,0.00,VWS V14.01,2013-11-03 18:21:00,
2013-11-03 12:26:00,50.2,35.6,29.88,ENE,70,3.0,16.0,57,0.00,,---,0.00,VWS V14.01,2013-11-03 18:26:00,
2013-11-03 12:30:00,50.6,35.9,29.87,SE,146,4.0,16.0,57,0.00,,---,0.00,VWS V14.01,2013-11-03 18:30:00,
2013-11-03 12:31:00,50.5,35.8,29.87,SSE,165,3.0,16.0,57,0.00,,---,0.00,VWS V14.01,2013-11-03 18:31:00,
2013-11-03 12:35:00,51.1,36.4,29.87,South,177,4.0,11.0,57,0.00,,---,0.00,VWS V14.01,2013-11-03 18:35:00,
2013-11-03 12:40:00,51.7,36.5,29.86,SE,141,1.0,13.0,56,0.00,,---,0.00,VWS V14.01,2013-11-03 18:40:00,
2013-11-03 12:45:00,52.3,36.6,29.86,SE,128,6.0,16.0,55,0.00,,---,0.00,VWS V14.01,2013-11-03 18:45:00,
2013-11-03 12:50:00,52.3,36.6,29.86,SE,142,1.0,16.0,55,0.00,,---,0.00,VWS V14.01,2013-11-03 18:50:00,
2013-11-03 12:55:00,52.5,36.3,29.85,ENE,74,5.0,16.0,54,0.00,,---,0.00,VWS V14.01,2013-11-03 18:55:00,
2013-11-03 13:00:00,52.5,35.9,29.84,East,98,4.0,16.0,53,0.00,,---,0.00,VWS V14.01,2013-11-03 19:00:00,
2013-11-03 13:05:00,52.5,35.9,29.84,SE,144,11.0,14.0,53,0.00,,---,0.00,VWS V14.01,2013-11-03 19:05:00,
2013-11-03 13:10:00,52.6,36.0,29.84,SE,125,3.0,14.0,53,0.00,,---,0.00,VWS V14.01,2013-11-03 19:10:00,
2013-11-03 13:15:00,53.1,36.0,29.84,SE,132,14.0,14.0,52,0.00,,---,0.00,VWS V14.01,2013-11-03 19:15:00,
2013-11-03 13:20:00,53.3,34.7,29.84,SSE,157,5.0,17.0,49,0.00,,---,0.00,VWS V14.01,2013-11-03 19:20:00,
2013-11-03 13:25:00,53.1,35.0,29.84,SSE,150,8.0,17.0,50,0.00,,---,0.00,VWS V14.01,2013-11-03 19:25:00,
2013-11-03 13:30:00,53.4,35.2,29.84,ESE,121,4.0,17.0,50,0.00,,---,0.00,VWS V14.01,2013-11-03 19:30:00,
2013-11-03 13:35:00,53.7,35.5,29.84,East,98,5.0,13.0,50,0.00,,---,0.00,VWS V14.01,2013-11-03 19:35:00,
2013-11-03 13:40:00,53.7,35.0,29.84,East,101,2.0,13.0,49,0.00,,---,0.00,VWS V14.01,2013-11-03 19:40:00,
2013-11-03 13:45:00,53.6,34.9,29.83,SSE,153,3.0,14.0,49,0.00,,---,0.00,VWS V14.01,2013-11-03 19:45:00,
2013-11-03 13:50:00,53.3,34.7,29.84,SSE,150,10.0,17.0,49,0.00,,---,0.00,VWS V14.01,2013-11-03 19:50:00,
2013-11-03 13:55:00,53.1,34.5,29.84,ENE,78,2.0,17.0,49,0.00,,---,0.00,VWS V14.01,2013-11-03 19:55:00,
2013-11-03 14:00:00,53.0,34.9,29.84,SSE,167,5.0,17.0,50,0.00,,---,0.00,VWS V14.01,2013-11-03 20:00:00,
2013-11-03 14:05:00,52.7,34.1,29.84,SSE,155,5.0,17.0,49,0.00,,---,0.00,VWS V14.01,2013-11-03 20:05:00,
2013-11-03 14:10:00,52.6,34.5,29.84,SSE,150,10.0,17.0,50,0.00,,---,0.00,VWS V14.01,2013-11-03 20:10:00,
2013-11-03 14:15:00,52.5,34.4,29.84,SE,139,3.0,17.0,50,0.00,,---,0.00,VWS V14.01,2013-11-03 20:15:00,
2013-11-03 14:20:00,52.4,34.3,29.84,SE,125,2.0,17.0,50,0.00,,---,0.00,VWS V14.01,2013-11-03 20:20:00,
2013-11-03 14:25:00,52.3,34.2,29.84,SSE,167,6.0,17.0,50,0.00,,---,0.00,VWS V14.01,2013-11-03 20:25:00,
2013-11-03 14:30:00,52.2,34.1,29.84,SE,146,4.0,18.0,50,0.00,,---,0.00,VWS V14.01,2013-11-03 20:30:00,
2013-11-03 14:35:00,52.2,34.6,29.83,SSE,152,5.0,13.0,51,0.00,,---,0.00,VWS V14.01,2013-11-03 20:35:00,
2013-11-03 14:40:00,52.4,34.3,29.83,SW,225,3.0,16.0,50,0.00,,---,0.00,VWS V14.01,2013-11-03 20:40:00,
2013-11-03 14:45:00,52.5,34.4,29.83,South,172,11.0,16.0,50,0.00,,---,0.00,VWS V14.01,2013-11-03 20:45:00,
2013-11-03 14:50:00,52.6,35.0,29.83,SE,128,6.0,16.0,51,0.00,,---,0.00,VWS V14.01,2013-11-03 20:50:00,
2013-11-03 14:55:00,52.8,34.2,29.83,East,95,10.0,16.0,49,0.00,,---,0.00,VWS V14.01,2013-11-03 20:55:00,
2013-11-03 15:00:00,52.9,33.8,29.83,SE,142,3.0,16.0,48,0.00,,---,0.00,VWS V14.01,2013-11-03 21:00:00,
2013-11-03 15:05:00,53.1,34.0,29.83,SSE,155,9.0,17.0,48,0.00,,---,0.00,VWS V14.01,2013-11-03 21:05:00,
2013-11-03 15:10:00,53.1,34.0,29.83,SSE,148,22.0,22.0,48,0.00,,---,0.00,VWS V14.01,2013-11-03 21:10:00,
2013-11-03 15:15:00,53.0,33.8,29.83,SE,132,5.0,22.0,48,0.00,,---,0.00,VWS V14.01,2013-11-03 21:15:00,
2013-11-03 15:20:00,53.0,33.8,29.83,WSW,239,10.0,22.0,48,0.00,,---,0.00,VWS V14.01,2013-11-03 21:20:00,
2013-11-03 15:25:00,52.9,34.3,29.83,SE,130,7.0,22.0,49,0.00,,---,0.00,VWS V14.01,2013-11-03 21:25:00,
2013-11-03 15:30:00,52.6,34.5,29.83,SSE,155,4.0,22.0,50,0.00,,---,0.00,VWS V14.01,2013-11-03 21:30:00,
2013-11-03 15:35:00,52.2,34.1,29.83,SSE,159,10.0,15.0,50,0.00,,---,0.00,VWS V14.01,2013-11-03 21:35:00,
2013-11-03 15:40:00,51.9,33.9,29.83,SSE,160,2.0,15.0,50,0.00,,---,0.00,VWS V14.01,2013-11-03 21:40:00,
2013-11-03 15:45:00,51.7,34.2,29.83,SSE,152,1.0,15.0,51,0.00,,---,0.00,VWS V14.01,2013-11-03 21:45:00,
2013-11-03 15:50:00,51.6,34.1,29.83,SSW,195,5.0,15.0,51,0.00,,---,0.00,VWS V14.01,2013-11-03 21:50:00,
2013-11-03 15:55:00,51.6,34.1,29.83,SE,144,4.0,15.0,51,0.00,,---,0.00,VWS V14.01,2013-11-03 21:55:00,
2013-11-03 16:00:00,51.6,34.1,29.83,SE,146,4.0,15.0,51,0.00,,---,0.00,VWS V14.01,2013-11-03 22:00:00,
2013-11-03 16:05:00,51.5,34.0,29.83,SE,137,8.0,10.0,51,0.00,,---,0.00,VWS V14.01,2013-11-03 22:05:00,
2013-11-03 16:11:00,51.5,34.0,29.83,ENE,71,2.0,14.0,51,0.00,,---,0.00,VWS V14.01,2013-11-03 22:11:00,
2013-11-03 16:16:00,51.5,34.0,29.83,SE,131,1.0,15.0,51,0.00,,---,0.00,VWS V14.01,2013-11-03 22:16:00,
2013-11-03 16:21:00,51.3,33.8,29.83,SSE,166,0.0,15.0,51,0.00,,---,0.00,VWS V14.01,2013-11-03 22:21:00,
2013-11-03 16:26:00,51.2,33.7,29.83,South,179,7.0,15.0,51,0.00,,---,0.00,VWS V14.01,2013-11-03 22:26:00,
2013-11-03 16:30:00,51.2,33.7,29.83,SSE,152,4.0,15.0,51,0.00,,---,0.00,VWS V14.01,2013-11-03 22:30:00,
2013-11-03 16:35:00,51.1,33.6,29.83,South,175,6.0,6.0,51,0.00,,---,0.00,VWS V14.01,2013-11-03 22:35:00,
2013-11-03 16:40:00,51.1,33.6,29.83,SE,143,2.0,13.0,51,0.00,,---,0.00,VWS V14.01,2013-11-03 22:40:00,
2013-11-03 16:45:00,51.1,33.1,29.82,SE,125,1.0,13.0,50,0.00,,---,0.00,VWS V14.01,2013-11-03 22:45:00,
2013-11-03 16:50:00,51.1,33.1,29.83,East,84,2.0,16.0,50,0.00,,---,0.00,VWS V14.01,2013-11-03 22:50:00,
2013-11-03 16:55:00,51.0,33.0,29.83,SE,127,5.0,16.0,50,0.00,,---,0.00,VWS V14.01,2013-11-03 22:55:00,
2013-11-03 17:00:00,50.9,32.9,29.83,SE,133,0.0,16.0,50,0.00,,---,0.00,VWS V14.01,2013-11-03 23:00:00,
2013-11-03 17:05:00,50.8,33.3,29.82,SE,137,3.0,11.0,51,0.00,,---,0.00,VWS V14.01,2013-11-03 23:05:00,
2013-11-03 17:10:00,50.7,32.8,29.82,ENE,74,0.0,11.0,50,0.00,,---,0.00,VWS V14.01,2013-11-03 23:10:00,
2013-11-03 17:15:00,50.6,32.7,29.82,SSE,159,6.0,11.0,50,0.00,,---,0.00,VWS V14.01,2013-11-03 23:15:00,
2013-11-03 17:20:00,50.5,33.1,29.82,South,176,0.0,11.0,51,0.00,,---,0.00,VWS V14.01,2013-11-03 23:20:00,
2013-11-03 17:25:00,50.3,33.4,29.82,SSE,159,5.0,11.0,52,0.00,,---,0.00,VWS V14.01,2013-11-03 23:25:00,
2013-11-03 17:30:00,50.1,33.2,29.82,SE,135,0.0,11.0,52,0.00,,---,0.00,VWS V14.01,2013-11-03 23:30:00,
2013-11-03 17:35:00,50.0,33.1,29.82,SE,140,6.0,10.0,52,0.00,,---,0.00,VWS V14.01,2013-11-03 23:35:00,
2013-11-03 17:40:00,50.1,33.2,29.82,SE,138,3.0,11.0,52,0.00,,---,0.00,VWS V14.01,2013-11-03 23:40:00,
2013-11-03 17:45:00,50.0,33.1,29.83,SSE,167,4.0,11.0,52,0.00,,---,0.00,VWS V14.01,2013-11-03 23:45:00,
2013-11-03 17:50:00,50.0,33.1,29.83,ESE,111,1.0,12.0,52,0.00,,---,0.00,VWS V14.01,2013-11-03 23:50:00,
2013-11-03 17:55:00,49.9,33.0,29.83,SSE,154,1.0,12.0,52,0.00,,---,0.00,VWS V14.01,2013-11-03 23:55:00,
2013-11-03 18:00:00,49.9,33.0,29.83,SE,138,0.0,12.0,52,0.00,,---,0.00,VWS V14.01,2013-11-04 00:00:00,
2013-11-03 18:05:00,49.8,32.9,29.82,SE,125,1.0,12.0,52,0.00,,---,0.00,VWS V14.01,2013-11-04 00:05:00,
2013-11-03 18:10:00,49.8,32.9,29.83,SSE,152,12.0,14.0,52,0.00,,---,0.00,VWS V14.01,2013-11-04 00:10:00,
2013-11-03 18:15:00,49.8,32.9,29.82,SE,144,6.0,14.0,52,0.00,,---,0.00,VWS V14.01,2013-11-04 00:15:00,
2013-11-03 18:20:00,49.7,33.3,29.82,SE,130,3.0,15.0,53,0.00,,---,0.00,VWS V14.01,2013-11-04 00:20:00,
2013-11-03 18:25:00,49.7,33.3,29.82,SSE,163,3.0,15.0,53,0.00,,---,0.00,VWS V14.01,2013-11-04 00:25:00,
2013-11-03 18:30:00,49.6,33.2,29.83,SSW,192,5.0,15.0,53,0.00,,---,0.00,VWS V14.01,2013-11-04 00:30:00,
2013-11-03 18:35:00,49.5,33.1,29.83,SSW,194,6.0,15.0,53,0.00,,---,0.00,VWS V14.01,2013-11-04 00:35:00,
2013-11-03 18:40:00,49.4,33.5,29.83,ESE,118,1.0,15.0,54,0.00,,---,0.00,VWS V14.01,2013-11-04 00:40:00,
2013-11-03 18:45:00,49.2,33.3,29.83,SE,133,9.0,15.0,54,0.00,,---,0.00,VWS V14.01,2013-11-04 00:45:00,
2013-11-03 18:50:00,49.1,33.7,29.83,South,175,1.0,15.0,55,0.00,,---,0.00,VWS V14.01,2013-11-04 00:50:00,
2013-11-03 18:55:00,48.9,33.5,29.83,South,179,7.0,15.0,55,0.00,,---,0.00,VWS V14.01,2013-11-04 00:55:00,
2013-11-03 19:00:00,48.8,33.4,29.83,East,87,0.0,15.0,55,0.00,,---,0.00,VWS V14.01,2013-11-04 01:00:00,
2013-11-03 19:05:00,48.8,33.8,29.83,SSE,157,1.0,8.0,56,0.00,,---,0.00,VWS V14.01,2013-11-04 01:05:00,
2013-11-03 19:10:00,48.7,33.7,29.83,SSE,152,7.0,9.0,56,0.00,,---,0.00,VWS V14.01,2013-11-04 01:10:00,
2013-11-03 19:15:00,48.6,33.6,29.83,SE,125,0.0,13.0,56,0.00,,---,0.00,VWS V14.01,2013-11-04 01:15:00,
2013-11-03 19:20:00,48.5,34.0,29.83,SSE,157,3.0,13.0,57,0.00,,---,0.00,VWS V14.01,2013-11-04 01:20:00,
2013-11-03 19:25:00,48.6,34.1,29.83,SSE,150,6.0,13.0,57,0.00,,---,0.00,VWS V14.01,2013-11-04 01:25:00,
2013-11-03 19:30:00,48.5,34.0,29.83,SSE,155,1.0,13.0,57,0.00,,---,0.00,VWS V14.01,2013-11-04 01:30:00,
2013-11-03 19:35:00,48.4,33.9,29.83,SE,129,3.0,12.0,57,0.00,,---,0.00,VWS V14.01,2013-11-04 01:35:00,
2013-11-03 19:40:00,48.4,33.9,29.83,SSE,161,2.0,12.0,57,0.00,,---,0.00,VWS V14.01,2013-11-04 01:40:00,
2013-11-03 19:45:00,48.4,33.9,29.83,SE,134,2.0,16.0,57,0.00,,---,0.00,VWS V14.01,2013-11-04 01:45:00,
2013-11-03 19:50:00,48.3,33.8,29.83,SSE,155,2.0,16.0,57,0.00,,---,0.00,VWS V14.01,2013-11-04 01:50:00,
2013-11-03 19:55:00,48.2,33.7,29.83,South,171,3.0,16.0,57,0.00,,---,0.00,VWS V14.01,2013-11-04 01:55:00,
2013-11-03 20:00:00,48.1,34.0,29.83,SE,138,3.0,16.0,58,0.00,,---,0.00,VWS V14.01,2013-11-04 02:00:00,
2013-11-03 20:05:00,48.1,34.0,29.83,SSE,152,9.0,13.0,58,0.00,,---,0.00,VWS V14.01,2013-11-04 02:05:00,
2013-11-03 20:10:00,48.1,34.0,29.83,SSE,148,0.0,13.0,58,0.00,,---,0.00,VWS V14.01,2013-11-04 02:10:00,
2013-11-03 20:15:00,48.1,34.0,29.83,SE,144,5.0,13.0,58,0.00,,---,0.00,VWS V14.01,2013-11-04 02:15:00,
2013-11-03 20:20:00,48.1,34.0,29.83,SSE,157,0.0,14.0,58,0.00,,---,0.00,VWS V14.01,2013-11-04 02:20:00,
2013-11-03 20:25:00,48.1,34.0,29.83,SSW,193,0.0,18.0,58,0.00,,---,0.00,VWS V14.01,2013-11-04 02:25:00,
2013-11-03 20:30:00,48.0,33.9,29.82,SSE,159,6.0,18.0,58,0.00,,---,0.00,VWS V14.01,2013-11-04 02:30:00,
2013-11-03 20:35:00,47.9,33.8,29.83,SSE,157,6.0,14.0,58,0.00,,---,0.00,VWS V14.01,2013-11-04 02:35:00,
2013-11-03 20:40:00,47.9,33.8,29.83,SE,138,2.0,14.0,58,0.00,,---,0.00,VWS V14.01,2013-11-04 02:40:00,
2013-11-03 20:45:00,47.9,33.8,29.82,South,184,6.0,14.0,58,0.00,,---,0.00,VWS V14.01,2013-11-04 02:45:00,
2013-11-03 20:50:00,47.9,33.8,29.82,SSE,156,2.0,14.0,58,0.00,,---,0.00,VWS V14.01,2013-11-04 02:50:00,
2013-11-03 20:55:00,47.8,33.8,29.82,ESE,118,0.0,14.0,58,0.00,,---,0.00,VWS V14.01,2013-11-04 02:55:00,
2013-11-03 21:00:00,47.8,34.2,29.82,SE,144,7.0,14.0,59,0.00,,---,0.00,VWS V14.01,2013-11-04 03:00:00,
2013-11-03 21:05:00,47.7,34.1,29.82,SSE,153,4.0,12.0,59,0.00,,---,0.00,VWS V14.01,2013-11-04 03:05:00,
2013-11-03 21:10:00,47.7,34.1,29.82,SE,129,0.0,12.0,59,0.00,,---,0.00,VWS V14.01,2013-11-04 03:10:00,
2013-11-03 21:15:00,47.6,34.0,29.82,ESE,121,5.0,12.0,59,0.00,,---,0.00,VWS V14.01,2013-11-04 03:15:00,
2013-11-03 21:20:00,47.6,34.0,29.83,South,178,6.0,13.0,59,0.00,,---,0.00,VWS V14.01,2013-11-04 03:20:00,
2013-11-03 21:25:00,47.6,34.0,29.82,SSE,149,5.0,13.0,59,0.00,,---,0.00,VWS V14.01,2013-11-04 03:25:00,
2013-11-03 21:30:00,47.5,33.9,29.82,SSE,156,5.0,13.0,59,0.00,,---,0.00,VWS V14.01,2013-11-04 03:30:00,
2013-11-03 21:35:00,47.4,33.8,29.82,SSE,168,2.0,10.0,59,0.00,,---,0.00,VWS V14.01,2013-11-04 03:35:00,
2013-11-03 21:40:00,47.4,34.2,29.82,SW,224,3.0,15.0,60,0.00,,---,0.00,VWS V14.01,2013-11-04 03:40:00,
2013-11-03 21:45:00,47.4,34.2,29.82,SE,144,3.0,15.0,60,0.00,,---,0.00,VWS V14.01,2013-11-04 03:45:00,
2013-11-03 21:50:00,47.4,34.2,29.82,SE,128,12.0,15.0,60,0.00,,---,0.00,VWS V14.01,2013-11-04 03:50:00,
2013-11-03 21:55:00,47.3,34.1,29.82,SSE,164,10.0,15.0,60,0.00,,---,0.00,VWS V14.01,2013-11-04 03:55:00,
2013-11-03 22:00:00,47.3,34.1,29.82,SSE,163,0.0,15.0,60,0.00,,---,0.00,VWS V14.01,2013-11-04 04:00:00,
2013-11-03 22:05:00,47.3,34.5,29.82,SSE,164,2.0,10.0,61,0.00,,---,0.00,VWS V14.01,2013-11-04 04:05:00,
2013-11-03 22:10:00,47.2,34.5,29.82,SSE,163,0.0,10.0,61,0.00,,---,0.00,VWS V14.01,2013-11-04 04:10:00,
2013-11-03 22:15:00,47.1,34.4,29.82,SSE,160,2.0,10.0,61,0.00,,---,0.00,VWS V14.01,2013-11-04 04:15:00,
2013-11-03 22:20:00,47.1,34.4,29.82,SE,145,4.0,12.0,61,0.00,,---,0.00,VWS V14.01,2013-11-04 04:20:00,
2013-11-03 22:25:00,47.1,34.4,29.82,SSW,194,6.0,12.0,61,0.00,,---,0.00,VWS V14.01,2013-11-04 04:25:00,
2013-11-03 22:30:00,47.1,34.4,29.81,WSW,255,4.0,12.0,61,0.00,,---,0.00,VWS V14.01,2013-11-04 04:30:00,
2013-11-03 22:35:00,47.1,34.4,29.81,SSE,157,3.0,14.0,61,0.00,,---,0.00,VWS V14.01,2013-11-04 04:35:00,
2013-11-03 22:40:00,47.1,34.4,29.81,SSE,161,4.0,14.0,61,0.00,,---,0.00,VWS V14.01,2013-11-04 04:40:00,
2013-11-03 22:45:00,47.0,34.3,29.81,ESE,120,7.0,14.0,61,0.00,,---,0.00,VWS V14.01,2013-11-04 04:45:00,
2013-11-03 22:50:00,47.0,34.7,29.81,South,177,1.0,14.0,62,0.00,,---,0.00,VWS V14.01,2013-11-04 04:50:00,
2013-11-03 22:55:00,47.0,34.7,29.81,SE,131,2.0,14.0,62,0.00,,---,0.00,VWS V14.01,2013-11-04 04:55:00,
2013-11-03 23:00:00,47.0,34.7,29.81,SSE,159,0.0,14.0,62,0.00,,---,0.00,VWS V14.01,2013-11-04 05:00:00,
2013-11-03 23:01:00,47.0,34.7,29.81,SSW,201,3.0,14.0,62,0.00,,---,0.00,VWS V14.01,2013-11-04 05:01:00,
2013-11-03 23:06:00,46.9,34.6,29.81,SSW,205,1.0,12.0,62,0.00,,---,0.00,VWS V14.01,2013-11-04 05:06:00,
2013-11-03 23:11:00,46.9,34.6,29.81,SE,130,2.0,12.0,62,0.00,,---,0.00,VWS V14.01,2013-11-04 05:11:00,
2013-11-03 23:16:00,46.9,34.6,29.81,SSE,162,4.0,13.0,62,0.00,,---,0.00,VWS V14.01,2013-11-04 05:16:00,
2013-11-03 23:21:00,46.9,34.6,29.81,SE,142,5.0,13.0,62,0.00,,---,0.00,VWS V14.01,2013-11-04 05:21:00,
2013-11-03 23:26:00,46.9,34.6,29.81,SSE,159,3.0,13.0,62,0.00,,---,0.00,VWS V14.01,2013-11-04 05:26:00,
2013-11-03 23:30:00,46.9,34.6,29.81,SSE,167,1.0,13.0,62,0.00,,---,0.00,VWS V14.01,2013-11-04 05:30:00,
2013-11-03 23:31:00,46.9,34.6,29.81,South,186,3.0,13.0,62,0.00,,---,0.00,VWS V14.01,2013-11-04 05:31:00,
2013-11-03 23:36:00,46.9,34.6,29.81,SE,142,5.0,10.0,62,0.00,,---,0.00,VWS V14.01,2013-11-04 05:36:00,
2013-11-03 23:41:00,46.9,34.6,29.81,SSE,160,4.0,10.0,62,0.00,,---,0.00,VWS V14.01,2013-11-04 05:41:00,
2013-11-03 23:46:00,46.9,34.6,29.80,South,185,1.0,10.0,62,0.00,,---,0.00,VWS V14.01,2013-11-04 05:46:00,
2013-11-03 23:51:00,46.8,34.5,29.80,SSE,148,0.0,11.0,62,0.00,,---,0.00,VWS V14.01,2013-11-04 05:51:00,
2013-11-03 23:56:00,46.8,34.9,29.80,SSE,153,3.0,11.0,63,0.00,,---,0.00,VWS V14.01,2013-11-04 05:56:00,